Huvudsida
METAR-TAF:

METAR-TAF

Flygplatser :

Svolvær, Norge

Svolværs flygplats. Helle

latitud: 68-15N, longitud: 014-40E, höjd: 0 m

Aktuellt väderrapport

Denna rapport gjordes för 7 timmar och 26 minuter sedan, klockan 19:50 UTC
Vind 13 kt från ost, varierande mellan ost/nordost och sydost
Temperatur -3°C
Fuktighet 50%
Tryck 999 hPa
Sikt 10 km eller mer
Få moln på en höjd av 3500 ft

METAR: ENSH 181950Z 10013KT 070V130 9999 FEW035 M03/M12 Q0999 RMK WIND 150FT 08012KT

Tid: 04:16 (03:16 UTC)

Väderprognos

Denna rapport gjordes för 10 timmar och 16 minuter sedan, klockan 17:00 UTC
Prognos gäller från 18 kl. 18 UTC till 18 kl. 21 UTC
Vind 12 kt från sydost
Sikt 10 km eller mer
Få moln på en höjd av 3000 ft

TAF: ENSH 181700Z 1818/1821 13012KT 9999 FEW030

Aktuella väderrapporter och prognoser från 4000 flygplatser (METAR- och TAF-rapporter).

De tillgängliga stationerna syns som gula och röda prickar på kartan.

För musen över prickarna för att se namnen på stationerna.

Klicka sedan för att få väderrapporter och prognoser.

För att ändra kartan: Klicka på de gröna knapparna med ett svart kors på för att zooma in; den gröna knappen med ett streck på för att zooma ut; eller på de gröna pilarna för angränsande kartor.


METAR-TAF: